Central Sonoma County Latest

37 Stations

15 Minute Data | America/Los_Angeles
as of 5/7/26 1:54 PM PDT
Station Date Time Temp (°F) RH (%) Dew Pt (°F) Wind Spd (mph) Wind Dir (°) Wind Gust (mph) Latest Rain (In) Daily Rain (In) Daily Max Temp (°F) Daily Min Temp (°F)
Windsor-NW (Ranch 8) 5/7/26 1345 69.7   4.2 72   12 60.4   1.2 2.7   0.1 E | 90 8.4   1.7 0.00 0.00 70.6   4.0 52.0   2.3
Windsor-East (Ranch 16) 5/7/26 1345 67.6   5.9 67   10 56.0   0.9 4.3   0.5 S | 185 10.3   0.4 0.00 0.00 68.3   5.6 51.6   3.0
Mark West-North (Ranch 14) 5/7/26 1345 66.5   5.5 69   11 56.1   0.3 3.6   0.3 S | 175 8.1   0.8 0.00 0.00 67.3   7.4 51.8   2.5
Windsor-SE (Silk Rd) 5/7/26 1345 67.6   5.3 68   11 56.9   0.1 3.8   0.3 SE | 134 7.9   0.5 0.00 0.00 68.1   5.3 52.3   2.5
Fulton-NW (Ranch 5) 5/7/26 1345 67.4   5.0 69   9 56.8   0.8 4.3   0.1 SE | 144 10.5   0.5 0.00 0.00 68.0   5.9 51.9   2.4
Bisordi (Fulton) 5/7/26 1345 66.5   5.1 76   9 58.8   1.2 4.1   0.5 SSE | 152 8.7   1.1 0.00 0.00 67.1   5.3 52.2   2.3
Windsor-South (Laughlin Rd) 5/4/26 1515 70.3 46 48.5 - - - 0.00 - 71.4 51.0
Fulton-SE (Barnes Rd) 5/7/26 1345 66.8   4.7 67   7 55.7   1.5 3.5   0.3 S | 172 8.0   0.6 0.00 0.00 67.2   5.3 52.1   2.8
Fulton-SW (Ranch 21) 5/7/26 1330 65.6   6.4 71   11 55.8   1.1 5.7   0.9 S | 177 11.0   1.5 0.00 0.00 66.1   6.7 51.2   2.8
NW Santa Rosa (Piner Road) 5/7/26 1345 65.4   6.1 81   14 59.5   0.4 3.3   0.5 SSE | 166 8.9   0.9 0.00 0.00 65.8   6.2 51.5   2.8
River Rd South (Denner Ranch) 5/7/26 1345 66.9   5.9 67   10 55.7   1.2 6.2   1.3 SE | 142 10.1   2.2 - - 67.5   5.9 51.1   2.8
West Santa Rosa (LOV Vineyard) 5/7/26 1345 66.1   5.2 71   11 56.3   0.4 4.3   0.7 S | 191 9.2   0.0 0.00 0.00 66.4   5.3 51.5   2.9
Guerneville Rd (Prokopakis) 5/7/26 1345 69.7   6.6 64   9 57.1   2.1 - - - 0.00 0.00 70.7   6.2 51.8   2.9
SunnyView Vineyard (SCWC) 5/7/26 1345 65.9   6.6 70   12 55.8   1.1 2.9   1.0 SSE | 158 6.8   0.9 0.00 0.00 66.8   6.6 51.1   2.9
Guerneville Rd West (Balletto) 5/7/26 1345 65.8   5.7 74   9 57.5   1.8 4.6   0.6 SSE | 166 9.0   0.7 0.00 0.00 66.6   5.8 51.7   3.0
Sanchietti Ranch 5/7/26 1345 65.9   6.2 77   6 58.6   3.6 5.5   0.9 SSE | 165 10.3   0.1 0.00 0.00 65.9   7.0 52.2   3.0
Occidental Rd (Sebastopol) 5/7/26 1345 66.6   4.6 100   4 66.7   3.5 3.5   2.8 SSW | 197 8.1   3.7 0.00 0.00 67.3   4.6 51.2   2.6
Harper's Rest (Windsor-West) 5/7/26 1345 69.2   5.3 65   13 56.8   1.2 4.1   2.1 E | 87 7.1   0.7 0.00 0.00 69.9   5.5 50.7   2.7
Lower Westside Rd (Ranch 12) 5/7/26 1345 70.6   4.8 62   14 57.0   2.4 3.6   1.1 SE | 129 8.3   2.6 0.00 0.00 71.3   5.3 51.6   3.0
Guerneville (Laughlin Rd) 5/7/26 1345 71.6   1.2 56   1 55.2   1.6 6.2   1.7 SSE | 152 10.5   1.7 0.00 0.00 71.9   1.8 51.5   2.4
Korbel (Winery) 5/7/26 1345 73.1   3.6 58   2 57.4   2.4 2.5   3.0 S | 188 6.2   5.9 0.00 0.00 73.2   0.2 52.0   2.6
Forestville (Shone Farms) 5/7/26 1345 68.0   5.3 68   12 57.3   0.6 4.3   1.0 ESE | 104 10.0   0.5 0.00 0.00 69.5   6.0 49.9   2.4
Forestville-NE (Ranch 30) 5/7/26 1345 69.2   2.8 69   6 58.7   0.0 5.2   0.2 SE | 127 9.6   0.6 0.00 0.00 69.6   5.5 50.9   3.0
Foggy Bend (Ranch 41) 5/7/26 1345 69.5   4.8 70   10 59.5   0.1 3.4   1.6 SSE | 168 7.5   4.1 0.00 0.00 70.7   4.7 52.2   2.8
Last Stop 5/7/26 1345 69.5   3.6 68   2 58.3   2.5 4.0   0.9 SSE | 152 8.0   3.4 0.00 0.00 70.3   3.5 51.4   2.9
Green Valley Vineyard 5/7/26 1345 68.0   3.0 67   8 56.5   0.8 2.8   2.0 E | 88 7.9   2.4 0.00 0.00 68.9   3.5 50.1   3.3
Park Royal 5/7/26 1345 65.3   6.3 69   10 55.0   1.7 - - - 0.00 0.00 66.1   6.8 51.1   3.0
Merino 5/7/26 1345 65.2   5.8 79   11 58.4   1.3 4.5   0.3 SSE | 156 9.1   1.0 0.00 0.00 65.7   6.7 51.5   2.8
Green Valley (Sanchietti) 5/7/26 1345 69.2   5.8 - - - - - - - 70.6   5.4 50.4   4.3
Keefer Ranch (Green Valley) 5/7/26 1345 68.7   3.9 71   10 58.8   0.4 - - - 0.00 0.00 68.9   3.7 51.3   3.1
Graton-West (Dutton Ranch) 5/7/26 1345 69.5   3.5 86   18 65.0   3.2 3.6   1.3 SE | 141 7.2   2.7 0.00 0.00 70.7   3.3 51.5   3.0
Graton-South (Mill Station Rd) 5/7/26 1345 64.4   3.7 73   7 55.6   0.8 2.3   1.1 SSW | 207 5.6   2.1 0.00 0.00 65.2   3.9 50.7   3.0
Occidental (Horseshoe Bend) 5/7/26 1345 63.3   4.7 74   11 55.0   0.2 - - - 0.00 0.01 63.7   5.3 49.2   2.2
Sexton Valley (Jacqueline's Blk) 5/7/26 1345 64.9   4.0 77   8 57.6   0.9 2.3   0.4 SSW | 195 5.7   2.0 0.00 0.00 66.0   3.4 51.1   3.1
Sebastopol Hills (Burnside Rd) 5/7/26 1345 61.1   3.5 84   7 56.2   1.0 6.2   1.2 SSW | 211 10.6   1.2 0.00 0.00 61.8   3.6 49.6   2.7
Pleasant Hill 5/7/26 1345 63.0   5.1 73   8 54.4   1.7 5.4   0.7 SSW | 207 9.8   2.2 0.00 0.00 63.6   5.3 50.3   2.9
Seaview/Fort Ross (Hirsch) 5/7/26 1345 63.0   1.5 71   5 53.6   0.5 2.7   0.8 WSW | 244 6.1   2.1 0.00 0.00 63.6   0.6 47.2   1.8
Max     73.1 100 66.7 6.2 - 11.0 0.00 0.01 73.2 52.3
Avg     67.1 72 57.4 4.1 - 8.5 0.00 - - -
Min     61.1 56 53.6 2.3 - 5.6 0.00 0.00 61.8 47.2